createdAt,value
2019-04-23T00:02:53.653Z,69.00
2019-04-23T00:06:04.122Z,68.80
2019-04-23T00:09:10.996Z,69.30
2019-04-23T00:12:01.814Z,70.40
2019-04-23T00:15:09.249Z,70.20
2019-04-23T00:18:12.389Z,69.80
2019-04-23T00:21:24.811Z,69.40
2019-04-23T00:25:21.953Z,69.20
2019-04-23T00:27:51.521Z,70.20
2019-04-23T00:30:54.974Z,69.80
2019-04-23T00:33:49.612Z,69.50
2019-04-23T00:37:06.469Z,70.40
2019-04-23T00:39:59.185Z,69.50
2019-04-23T00:43:01.999Z,70.60
2019-04-23T00:46:06.595Z,70.50
2019-04-23T00:49:10.765Z,71.20
2019-04-23T00:52:14.552Z,71.00
2019-04-23T00:55:15.891Z,70.60
2019-04-23T00:58:22.402Z,70.30
2019-04-23T01:01:29.618Z,69.70
2019-04-23T01:04:27.500Z,70.30
2019-04-23T01:07:31.861Z,69.80
2019-04-23T01:10:52.537Z,69.70
2019-04-23T01:14:01.036Z,70.30
2019-04-23T01:16:48.429Z,70.10
2019-04-23T01:19:57.737Z,70.00
2019-04-23T01:22:44.274Z,70.30
2019-04-23T01:26:26.322Z,70.60
2019-04-23T01:29:38.870Z,71.40
2019-04-23T01:32:36.456Z,71.00
2019-04-23T01:35:41.662Z,72.00
2019-04-23T01:38:49.952Z,71.90
2019-04-23T01:47:54.853Z,72.70
2019-04-23T01:50:57.475Z,71.20
2019-04-23T01:54:02.944Z,73.10
2019-04-23T01:57:09.187Z,72.40
2019-04-23T02:00:17.322Z,72.30
2019-04-23T02:03:18.458Z,72.70
2019-04-23T02:06:16.566Z,72.60
2019-04-23T02:09:17.270Z,72.80
2019-04-23T02:12:25.906Z,73.80
2019-04-23T02:15:29.940Z,73.60
2019-04-23T02:18:30.687Z,74.30
2019-04-23T02:21:38.462Z,73.90
2019-04-23T02:24:41.406Z,74.50
2019-04-23T02:27:42.650Z,75.10
2019-04-23T02:31:12.176Z,74.90
2019-04-23T02:34:00.488Z,74.30
2019-04-23T02:37:00.571Z,74.50
2019-04-23T02:40:08.771Z,74.10
2019-04-23T02:43:15.246Z,74.00
2019-04-23T02:52:18.291Z,73.20
2019-04-23T03:01:49.482Z,73.90
2019-04-23T03:08:00.063Z,74.60
2019-04-23T03:11:01.363Z,74.30
2019-04-23T03:20:21.404Z,75.10
2019-04-23T03:26:57.381Z,74.90
2019-04-23T03:29:48.972Z,74.80
2019-04-23T03:33:29.379Z,74.60
2019-04-23T03:38:48.854Z,72.80
2019-04-23T03:41:54.191Z,73.30
2019-04-23T03:45:13.983Z,73.20
2019-04-23T03:48:05.961Z,73.00
2019-04-23T03:51:03.326Z,72.70
2019-04-23T04:00:31.677Z,72.10
2019-04-23T04:03:42.262Z,72.30
2019-04-23T04:06:40.706Z,71.60
2019-04-23T04:09:34.154Z,71.50
2019-04-23T04:12:29.207Z,70.90
2019-04-23T04:18:38.618Z,70.60
2019-04-23T04:24:39.878Z,70.40
2019-04-23T04:27:58.009Z,70.00
2019-04-23T04:37:16.746Z,68.10
2019-04-23T04:43:13.824Z,67.10
2019-04-23T04:49:17.041Z,65.90
2019-04-23T04:52:21.871Z,65.60
2019-04-23T04:55:16.224Z,65.50
2019-04-23T04:58:32.254Z,64.40
2019-04-23T05:01:23.846Z,64.50
2019-04-23T05:07:36.026Z,63.90
2019-04-23T05:16:38.808Z,62.40
2019-04-23T05:19:42.592Z,62.10
2019-04-23T05:22:49.343Z,61.80
2019-04-23T05:25:44.782Z,60.60
2019-04-23T05:28:55.933Z,60.70
2019-04-23T05:31:48.401Z,60.50
2019-04-23T05:34:57.680Z,59.60
2019-04-23T05:47:11.702Z,59.30
2019-04-23T05:50:18.613Z,58.40
2019-04-23T05:53:11.583Z,59.20
2019-04-23T05:56:20.659Z,57.90
2019-04-23T05:59:16.051Z,57.70
2019-04-23T06:02:32.427Z,57.60
2019-04-23T06:05:32.983Z,57.20
2019-04-23T06:08:38.574Z,56.90
2019-04-23T06:11:47.340Z,57.30
2019-04-23T06:14:45.781Z,55.90
2019-04-23T06:18:02.257Z,55.50
2019-04-23T06:20:59.033Z,56.10
2019-04-23T06:23:51.342Z,54.60
2019-04-23T06:29:57.096Z,54.00
2019-04-23T06:33:11.168Z,53.50
2019-04-23T06:36:10.307Z,52.90
2019-04-23T06:39:01.338Z,53.70
2019-04-23T06:42:06.000Z,53.00
2019-04-23T06:45:19.297Z,52.20
2019-04-23T06:48:24.322Z,52.70
2019-04-23T06:51:25.861Z,51.50
2019-04-23T06:54:24.478Z,52.00
2019-04-23T06:57:41.019Z,50.60
2019-04-23T07:03:43.177Z,49.80
2019-04-23T07:06:46.869Z,48.20
2019-04-23T07:09:43.863Z,47.50
2019-04-23T07:13:01.260Z,47.30
2019-04-23T07:15:53.763Z,47.10
2019-04-23T07:19:07.773Z,43.90
2019-04-23T07:22:09.992Z,44.30
2019-04-23T07:25:17.297Z,44.20
2019-04-23T07:28:12.924Z,42.30
2019-04-23T07:31:28.351Z,42.20
2019-04-23T07:34:12.344Z,42.70
2019-04-23T07:37:17.623Z,41.70
2019-04-23T07:40:35.147Z,41.30
2019-04-23T07:43:58.999Z,40.30
2019-04-23T07:47:11.667Z,40.20
2019-04-23T07:50:09.827Z,41.10
2019-04-23T07:56:11.519Z,40.40
2019-04-23T07:59:16.092Z,39.20
2019-04-23T08:02:21.966Z,38.00
2019-04-23T08:05:22.489Z,38.30
2019-04-23T08:08:24.803Z,37.60
2019-04-23T08:11:34.301Z,37.90
2019-04-23T08:14:32.680Z,38.90
2019-04-23T08:17:37.405Z,38.50
2019-04-23T08:20:55.708Z,38.00
2019-04-23T08:24:10.672Z,37.30
2019-04-23T08:27:18.056Z,35.50
2019-04-23T08:30:16.909Z,35.90
2019-04-23T08:33:24.449Z,36.80
2019-04-23T08:36:39.517Z,35.80
2019-04-23T08:39:38.590Z,37.70
2019-04-23T08:42:52.921Z,37.40
2019-04-23T08:45:48.223Z,36.00
2019-04-23T08:48:49.645Z,33.50
2019-04-23T08:57:47.435Z,33.10
2019-04-23T09:01:05.129Z,33.60
2019-04-23T09:04:09.325Z,34.60
2019-04-23T09:07:17.880Z,34.70
2019-04-23T09:10:19.576Z,34.10
2019-04-23T09:13:50.240Z,33.20
2019-04-23T09:16:28.422Z,33.30
2019-04-23T09:22:38.897Z,32.50
2019-04-23T09:28:56.751Z,32.50
2019-04-23T09:32:13.447Z,31.30
2019-04-23T09:38:19.565Z,32.40
2019-04-23T09:41:27.025Z,31.40
2019-04-23T09:44:56.812Z,31.20
2019-04-23T09:51:04.955Z,31.00
2019-04-23T09:54:09.197Z,33.10
2019-04-23T09:57:06.159Z,32.80
2019-04-23T10:00:22.483Z,31.30
2019-04-23T10:03:07.967Z,29.40
2019-04-23T10:06:02.985Z,29.90
2019-04-23T10:09:01.461Z,29.20
2019-04-23T10:12:03.081Z,28.10
2019-04-23T10:15:13.184Z,28.10
2019-04-23T10:18:10.090Z,29.80
2019-04-23T10:21:13.048Z,26.40
2019-04-23T10:24:15.188Z,28.60
2019-04-23T10:27:18.777Z,27.90
2019-04-23T10:30:21.801Z,28.80
2019-04-23T10:33:23.642Z,27.40
2019-04-23T10:36:29.505Z,27.20
2019-04-23T10:39:35.109Z,27.60
2019-04-23T10:42:35.884Z,26.80
2019-04-23T10:45:59.269Z,27.90
2019-04-23T10:55:25.599Z,28.10
2019-04-23T11:01:32.523Z,25.60
2019-04-23T11:10:32.862Z,26.20
2019-04-23T11:13:50.227Z,26.70
2019-04-23T11:19:56.674Z,25.90
2019-04-23T11:22:51.792Z,23.80
2019-04-23T11:25:56.107Z,24.00
2019-04-23T11:29:15.050Z,24.00
2019-04-23T11:32:19.773Z,23.70
2019-04-23T11:35:33.907Z,23.50
2019-04-23T11:38:43.600Z,23.40
2019-04-23T11:41:25.061Z,24.30
2019-04-23T11:44:26.939Z,22.60
2019-04-23T11:47:45.628Z,23.90
2019-04-23T11:53:33.881Z,21.60
2019-04-23T11:57:13.471Z,20.90
2019-04-23T12:06:15.351Z,21.60
2019-04-23T12:12:37.864Z,22.30
2019-04-23T12:18:51.425Z,23.20
2019-04-23T12:21:43.971Z,21.30
2019-04-23T12:27:38.619Z,21.80
2019-04-23T12:30:50.593Z,20.40
2019-04-23T12:33:57.548Z,21.10
2019-04-23T12:37:06.138Z,20.50
2019-04-23T12:40:15.412Z,20.80
2019-04-23T12:43:17.493Z,19.40
2019-04-23T12:46:17.762Z,19.10
2019-04-23T12:49:44.224Z,19.60
2019-04-23T12:58:39.794Z,19.70
2019-04-23T13:01:47.026Z,19.10
2019-04-23T13:04:42.023Z,20.40
2019-04-23T13:07:43.633Z,19.40
2019-04-23T13:10:47.962Z,20.50
2019-04-23T13:13:53.506Z,20.60
2019-04-23T13:17:05.063Z,21.50
2019-04-23T13:20:03.598Z,20.60
2019-04-23T13:26:22.023Z,21.10
2019-04-23T13:29:18.470Z,19.50
2019-04-23T13:32:24.265Z,19.80
2019-04-23T13:41:26.107Z,20.90
2019-04-23T13:44:33.633Z,21.50
2019-04-23T13:47:50.494Z,20.60
2019-04-23T13:50:57.822Z,21.30
2019-04-23T13:53:50.296Z,21.50
2019-04-23T13:57:24.066Z,21.40
2019-04-23T13:59:48.441Z,20.90
2019-04-23T14:02:56.001Z,21.40
2019-04-23T14:09:21.627Z,20.50
2019-04-23T14:12:18.217Z,20.50
2019-04-23T14:18:53.116Z,22.10
2019-04-23T14:21:37.543Z,22.00
2019-04-23T14:24:40.724Z,21.50
2019-04-23T14:27:36.417Z,20.80
2019-04-23T14:30:46.572Z,20.90
2019-04-23T14:36:52.740Z,20.70
2019-04-23T14:39:52.984Z,21.50
2019-04-23T14:43:04.231Z,21.20
2019-04-23T14:46:31.122Z,20.90
2019-04-23T14:49:07.213Z,21.50
2019-04-23T14:52:14.227Z,21.70
2019-04-23T14:58:39.681Z,21.60
2019-04-23T15:01:34.718Z,21.40
2019-04-23T15:04:42.262Z,20.80
2019-04-23T15:07:42.118Z,20.60
2019-04-23T15:11:05.217Z,20.80
2019-04-23T15:13:49.434Z,20.70
2019-04-23T15:16:54.414Z,21.90
2019-04-23T15:23:25.439Z,19.70
2019-04-23T15:28:56.071Z,19.70
2019-04-23T15:32:21.700Z,19.00
2019-04-23T15:35:39.647Z,18.50
2019-04-23T15:38:36.099Z,19.40
2019-04-23T15:41:32.083Z,18.20
2019-04-23T15:44:28.201Z,19.50
2019-04-23T15:47:32.613Z,18.90
2019-04-23T15:50:38.535Z,19.80
2019-04-23T15:53:37.251Z,19.70
2019-04-23T16:02:21.642Z,20.10
2019-04-23T16:05:27.842Z,20.80
2019-04-23T16:11:56.885Z,21.40
2019-04-23T16:18:45.395Z,20.90
2019-04-23T16:21:47.301Z,21.30
2019-04-23T16:24:55.319Z,21.40
2019-04-23T16:27:46.809Z,22.30
2019-04-23T16:30:48.172Z,20.70
2019-04-23T16:37:08.131Z,21.70
2019-04-23T16:40:28.323Z,20.80
2019-04-23T16:43:12.715Z,21.60
2019-04-23T16:46:21.514Z,22.40
2019-04-23T16:49:21.969Z,23.60
2019-04-23T16:52:26.150Z,23.90
2019-04-23T16:55:29.470Z,25.50
2019-04-23T16:58:42.097Z,25.60
2019-04-23T17:01:39.708Z,26.50
2019-04-23T17:04:38.622Z,27.40
2019-04-23T17:07:53.340Z,28.00
2019-04-23T17:10:55.469Z,28.40
2019-04-23T17:13:58.952Z,28.70
2019-04-23T17:16:49.646Z,29.50
2019-04-23T17:19:59.414Z,29.90
2019-04-23T17:23:07.445Z,29.80
2019-04-23T17:29:18.623Z,31.50
2019-04-23T17:32:09.817Z,31.70
2019-04-23T17:35:24.486Z,31.70
2019-04-23T17:38:33.673Z,32.50
2019-04-23T17:41:50.632Z,32.80
2019-04-23T17:44:54.615Z,32.80
2019-04-23T17:47:59.310Z,33.90
2019-04-23T17:51:15.395Z,34.90
2019-04-23T17:54:06.572Z,34.90
2019-04-23T17:57:11.778Z,35.20
2019-04-23T18:03:28.229Z,36.70
2019-04-23T18:06:28.309Z,36.90
2019-04-23T18:09:18.370Z,37.20
2019-04-23T18:12:30.765Z,37.20
2019-04-23T18:15:35.222Z,37.80
2019-04-23T18:18:38.178Z,37.90
2019-04-23T18:25:04.346Z,39.20
2019-04-23T18:28:00.357Z,40.20
2019-04-23T18:31:33.272Z,41.20
2019-04-23T18:34:47.126Z,40.30
2019-04-23T18:37:58.373Z,40.60
2019-04-23T18:47:17.367Z,41.20
2019-04-23T18:50:22.663Z,42.30
2019-04-23T18:53:25.636Z,41.90
2019-04-23T18:56:19.329Z,42.20
2019-04-23T18:59:34.443Z,42.00
2019-04-23T19:05:43.314Z,42.60
2019-04-23T19:08:59.924Z,42.90
2019-04-23T19:15:26.568Z,43.60
2019-04-23T19:18:19.153Z,44.10
2019-04-23T19:24:31.624Z,44.70
2019-04-23T19:27:36.661Z,45.40
2019-04-23T19:30:56.573Z,45.20
2019-04-23T19:40:20.168Z,45.50
2019-04-23T19:46:43.995Z,45.70
2019-04-23T19:49:34.223Z,46.10
2019-04-23T19:52:53.414Z,46.20
2019-04-23T19:55:49.860Z,46.40
2019-04-23T20:01:49.759Z,46.20
2019-04-23T20:04:45.924Z,47.20
2019-04-23T20:10:57.832Z,47.30
2019-04-23T20:13:57.486Z,47.90
2019-04-23T20:17:31.765Z,47.40
2019-04-23T20:20:04.536Z,47.90
2019-04-23T20:23:14.031Z,48.40
2019-04-23T20:29:29.669Z,48.00
2019-04-23T20:33:00.103Z,48.30
2019-04-23T20:35:38.400Z,48.40
2019-04-23T20:42:02.416Z,48.80
2019-04-23T20:48:01.684Z,49.70
2019-04-23T20:50:56.352Z,50.20
2019-04-23T20:54:29.517Z,50.00
2019-04-23T20:57:39.199Z,50.20
2019-04-23T21:00:35.007Z,49.80
2019-04-23T21:06:45.925Z,50.20
2019-04-23T21:10:09.616Z,50.80
2019-04-23T21:15:54.644Z,50.00
2019-04-23T21:18:49.882Z,50.70
2019-04-23T21:22:09.515Z,50.50
2019-04-23T21:25:14.828Z,50.80
2019-04-23T21:28:17.271Z,50.70
2019-04-23T21:31:11.357Z,50.80
2019-04-23T21:34:26.917Z,50.70
2019-04-23T21:37:37.672Z,50.40
2019-04-23T21:41:02.246Z,51.10
2019-04-23T21:44:52.771Z,50.90
2019-04-23T21:46:51.122Z,50.70
2019-04-23T21:50:03.044Z,50.80
2019-04-23T21:52:56.090Z,51.00
2019-04-23T21:56:06.938Z,50.80
2019-04-23T21:59:04.339Z,50.90
2019-04-23T22:02:07.166Z,51.30
2019-04-23T22:05:17.490Z,51.30
2019-04-23T22:08:05.780Z,51.70
2019-04-23T22:11:53.652Z,52.40
2019-04-23T22:14:19.604Z,52.10
2019-04-23T22:17:27.321Z,52.40
2019-04-23T22:23:40.927Z,52.40
2019-04-23T22:26:36.296Z,53.00
2019-04-23T22:29:39.139Z,52.90
2019-04-23T22:35:51.470Z,53.50
2019-04-23T22:38:49.482Z,53.30
2019-04-23T22:42:08.906Z,53.20
2019-04-23T22:45:10.496Z,53.10
2019-04-23T22:51:11.041Z,53.80
2019-04-23T22:54:06.993Z,54.30
2019-04-23T22:57:05.815Z,54.30
2019-04-23T23:03:21.400Z,55.10
2019-04-23T23:06:57.285Z,54.90
2019-04-23T23:09:54.239Z,55.40
2019-04-23T23:12:58.414Z,55.40
2019-04-23T23:15:59.623Z,55.10
2019-04-23T23:25:16.816Z,54.40
2019-04-23T23:28:12.123Z,54.70
2019-04-23T23:34:15.594Z,55.20
2019-04-23T23:37:12.046Z,55.40
2019-04-23T23:40:25.713Z,55.80
2019-04-23T23:43:24.249Z,55.80
2019-04-23T23:46:35.253Z,55.80
2019-04-23T23:49:36.163Z,55.80
2019-04-23T23:52:41.053Z,55.20
2019-04-23T23:55:37.913Z,54.90
2019-04-23T23:58:55.284Z,55.20
